Time;durP1;ratioP1;P1;durP2;ratioP2;P2;SDS_P1;SDS_P2;PMS_P1;PMS_P2;Temp;Humidity;BMP_temperature;BMP_pressure;BME280_temperature;BME280_humidity;BME280_pressure;Samples;Min_cycle;Max_cycle;Signal;HPM_P1;HPM_P2
2021/06/27 00:02:28;;;;;;;23.35;6.38;;;25.40;71.20;;;;;;4976113;28;20046;-76
2021/06/27 00:05:34;;;;;;;29.73;6.10;;;25.40;71.30;;;;;;4975397;28;20057;-76
2021/06/27 00:08:38;;;;;;;19.85;5.53;;;25.40;71.20;;;;;;4976019;28;20046;-76
2021/06/27 00:11:43;;;;;;;18.27;6.30;;;25.40;71.10;;;;;;4964480;28;20316;-76
2021/06/27 00:14:48;;;;;;;15.35;6.00;;;25.30;71.00;;;;;;4975643;28;20050;-78
2021/06/27 00:17:53;;;;;;;34.30;6.22;;;25.20;71.20;;;;;;4975807;28;20058;-77
2021/06/27 00:21:00;;;;;;;33.53;6.75;;;25.20;71.50;;;;;;4975401;28;20046;-77
2021/06/27 00:24:05;;;;;;;18.75;6.15;;;25.20;71.90;;;;;;4975569;28;20046;-77
2021/06/27 00:27:09;;;;;;;24.00;5.97;;;25.20;71.80;;;;;;4975554;28;20057;-76
2021/06/27 00:30:15;;;;;;;23.80;6.03;;;25.10;72.10;;;;;;4975385;28;20045;-77
2021/06/27 00:33:20;;;;;;;26.05;6.10;;;25.00;72.60;;;;;;4974550;28;20046;-77
2021/06/27 00:36:24;;;;;;;25.05;6.20;;;25.00;72.80;;;;;;4975814;28;20124;-76
2021/06/27 00:39:43;;;;;;;18.65;6.03;;;25.10;72.40;;;;;;4975067;28;20049;-77
2021/06/27 00:42:47;;;;;;;19.02;5.70;;;25.10;72.20;;;;;;4975538;28;20042;-77
2021/06/27 00:45:51;;;;;;;23.60;6.03;;;25.10;72.30;;;;;;4974922;28;20054;-77
2021/06/27 00:48:55;;;;;;;20.13;5.93;;;25.10;72.50;;;;;;4974926;28;20038;-76
2021/06/27 00:51:59;;;;;;;17.02;6.38;;;25.10;72.80;;;;;;4974944;28;20081;-77
2021/06/27 00:55:04;;;;;;;17.60;5.88;;;24.90;73.00;;;;;;4975425;28;20042;-77
2021/06/27 00:58:08;;;;;;;19.25;6.15;;;24.90;73.40;;;;;;4973920;28;20053;-77
2021/06/27 01:01:12;;;;;;;21.27;6.53;;;24.80;73.50;;;;;;4975536;28;20054;-77
2021/06/27 01:04:16;;;;;;;23.35;5.88;;;24.70;74.30;;;;;;4974763;28;20046;-76
2021/06/27 01:07:20;;;;;;;18.63;6.75;;;24.70;74.40;;;;;;4974165;28;20137;-76
2021/06/27 01:10:28;;;;;;;21.13;6.72;;;24.60;74.70;;;;;;4975007;28;20049;-77
2021/06/27 01:13:33;;;;;;;20.77;6.55;;;24.60;74.70;;;;;;4974874;28;20045;-78
2021/06/27 01:16:40;;;;;;;18.88;6.47;;;24.60;74.90;;;;;;4975449;28;20050;-78
2021/06/27 01:19:44;;;;;;;15.32;5.90;;;24.60;74.80;;;;;;4974342;28;20046;-76
2021/06/27 01:22:52;;;;;;;19.63;6.32;;;24.50;75.10;;;;;;4974472;28;20046;-78
2021/06/27 01:25:56;;;;;;;17.10;5.88;;;24.50;75.60;;;;;;4973527;28;20513;-78
2021/06/27 01:29:00;;;;;;;21.88;6.90;;;24.40;76.20;;;;;;4974278;28;20046;-76
2021/06/27 01:32:10;;;;;;;19.90;6.15;;;24.50;75.90;;;;;;4974181;28;20046;-77
2021/06/27 01:35:17;;;;;;;28.25;7.03;;;24.50;75.80;;;;;;4974233;28;20061;-77
2021/06/27 01:38:22;;;;;;;19.52;6.55;;;24.40;76.40;;;;;;4973963;28;20053;-77
2021/06/27 01:41:26;;;;;;;17.10;6.50;;;24.20;77.00;;;;;;4974171;28;20046;-77
2021/06/27 01:44:32;;;;;;;21.63;6.45;;;24.20;77.40;;;;;;4973822;28;20050;-77
2021/06/27 01:47:35;;;;;;;17.02;7.15;;;24.30;77.60;;;;;;4974495;28;20053;-77
2021/06/27 01:50:25;;;;;;;19.80;6.43;;;24.20;77.80;;;;;;4973404;28;20529;-77
2021/06/27 01:53:32;;;;;;;18.45;6.07;;;24.10;77.90;;;;;;4974275;28;20066;-77
2021/06/27 01:56:39;;;;;;;22.27;6.50;;;24.10;78.00;;;;;;4973067;28;20107;-77
2021/06/27 01:59:43;;;;;;;18.45;7.00;;;24.10;78.00;;;;;;4973696;28;20065;-76
2021/06/27 02:02:48;;;;;;;19.05;6.30;;;24.20;77.90;;;;;;4973651;28;20057;-76
2021/06/27 02:05:52;;;;;;;20.35;6.28;;;24.20;77.70;;;;;;4973432;28;20055;-77
2021/06/27 02:08:40;;;;;;;21.08;6.35;;;24.30;77.40;;;;;;4974967;28;20620;-77
2021/06/27 02:11:45;;;;;;;21.80;6.75;;;24.30;77.30;;;;;;4973267;28;20054;-78
2021/06/27 02:14:49;;;;;;;16.58;6.13;;;24.20;77.50;;;;;;4973138;28;20410;-77
2021/06/27 02:18:12;;;;;;;20.00;6.65;;;24.20;77.40;;;;;;4973389;28;20046;-77
2021/06/27 02:21:23;;;;;;;21.50;6.57;;;24.20;77.70;;;;;;4973245;28;20399;-76
2021/06/27 02:24:27;;;;;;;16.95;5.75;;;24.10;77.80;;;;;;4973083;28;20070;-77
2021/06/27 02:27:31;;;;;;;19.95;6.80;;;24.10;78.30;;;;;;4973004;28;20092;-78
2021/06/27 02:30:37;;;;;;;19.02;6.38;;;24.00;78.90;;;;;;4972865;28;20045;-76
2021/06/27 02:33:43;;;;;;;15.65;7.20;;;23.90;79.40;;;;;;4972206;28;20387;-77
2021/06/27 02:36:47;;;;;;;17.70;6.90;;;23.80;79.80;;;;;;4973130;28;20053;-77
2021/06/27 02:39:51;;;;;;;19.33;7.05;;;23.80;79.90;;;;;;4972377;28;20054;-77
2021/06/27 02:42:55;;;;;;;21.20;6.85;;;23.80;79.80;;;;;;4972545;28;20046;-77
2021/06/27 02:45:59;;;;;;;16.20;6.43;;;23.70;80.10;;;;;;4971703;28;20521;-77
2021/06/27 02:49:03;;;;;;;27.95;7.00;;;23.70;80.20;;;;;;4972633;28;20061;-77
2021/06/27 02:52:07;;;;;;;20.35;6.43;;;23.70;80.50;;;;;;4972551;28;20057;-77
2021/06/27 02:55:13;;;;;;;22.63;6.55;;;23.60;80.80;;;;;;4982490;28;20047;-78
2021/06/27 02:58:17;;;;;;;17.98;8.93;;;23.60;81.20;;;;;;4972642;28;20046;-77
2021/06/27 03:01:22;;;;;;;26.35;12.50;;;23.60;81.10;;;;;;4972631;28;20050;-77
2021/06/27 03:04:25;;;;;;;33.80;17.40;;;23.60;81.20;;;;;;4971806;28;20061;-78
2021/06/27 03:07:29;;;;;;;30.20;11.60;;;23.50;81.60;;;;;;4972561;28;20073;-77
2021/06/27 03:10:34;;;;;;;30.65;8.82;;;23.50;82.00;;;;;;4972473;28;20041;-77
2021/06/27 03:13:40;;;;;;;18.20;7.15;;;23.40;82.40;;;;;;4972484;28;20391;-77
2021/06/27 03:16:44;;;;;;;19.50;7.63;;;23.40;82.70;;;;;;4972428;28;20050;-77
2021/06/27 03:19:48;;;;;;;21.15;7.50;;;23.40;82.60;;;;;;4972607;28;20046;-77
2021/06/27 03:22:52;;;;;;;24.65;9.95;;;23.40;82.40;;;;;;4972314;28;20393;-78
2021/06/27 03:25:56;;;;;;;27.33;14.23;;;23.50;82.10;;;;;;4972233;28;20057;-78
2021/06/27 03:29:00;;;;;;;37.80;17.23;;;23.50;82.10;;;;;;4971854;28;20046;-78
2021/06/27 03:32:05;;;;;;;23.15;8.73;;;23.50;82.30;;;;;;4972261;28;20053;-78
2021/06/27 03:35:09;;;;;;;28.10;11.38;;;23.50;82.30;;;;;;4972275;28;20293;-77
2021/06/27 03:41:21;;;;;;;23.90;10.30;;;23.30;83.00;;;;;;4959955;28;20057;-77
2021/06/27 03:44:27;;;;;;;23.63;10.30;;;23.30;83.60;;;;;;4971962;28;20398;-78
2021/06/27 03:47:31;;;;;;;21.42;9.82;;;23.30;83.60;;;;;;4971497;28;20602;-76
2021/06/27 03:50:35;;;;;;;28.60;10.43;;;23.30;83.80;;;;;;4971849;28;20229;-77
2021/06/27 03:53:42;;;;;;;22.35;8.07;;;23.40;83.40;;;;;;4971628;28;20070;-77
2021/06/27 03:56:46;;;;;;;14.93;7.78;;;23.50;82.40;;;;;;4972271;28;20052;-77
2021/06/27 03:59:50;;;;;;;21.80;7.78;;;23.50;82.10;;;;;;4972111;28;20061;-75
2021/06/27 04:02:54;;;;;;;19.13;6.63;;;23.50;82.10;;;;;;4971932;28;20304;-78
2021/06/27 04:05:58;;;;;;;24.10;7.30;;;23.50;81.90;;;;;;4971976;28;20518;-77
2021/06/27 04:09:01;;;;;;;14.90;6.82;;;23.50;81.80;;;;;;4971664;28;20046;-75
2021/06/27 04:12:06;;;;;;;12.68;6.22;;;23.60;81.90;;;;;;4971991;28;20066;-76
2021/06/27 04:15:11;;;;;;;25.70;7.07;;;23.70;80.80;;;;;;4972114;28;20062;-79
2021/06/27 04:18:15;;;;;;;15.68;7.43;;;23.90;79.90;;;;;;4972162;28;20487;-77
2021/06/27 04:21:19;;;;;;;15.27;7.22;;;23.90;79.90;;;;;;4971572;28;20050;-76
2021/06/27 04:24:26;;;;;;;22.02;8.05;;;23.90;80.20;;;;;;4971498;28;20046;-77
2021/06/27 04:27:30;;;;;;;18.65;8.02;;;23.90;80.10;;;;;;4971754;28;20082;-76
2021/06/27 04:30:36;;;;;;;36.30;11.27;;;24.00;80.10;;;;;;4970755;28;20038;-77
2021/06/27 04:33:40;;;;;;;33.33;11.48;;;24.10;79.70;;;;;;4974204;28;20046;-78
2021/06/27 04:36:44;;;;;;;30.85;11.23;;;24.10;79.60;;;;;;4975108;28;20062;-75
2021/06/27 04:39:48;;;;;;;24.65;9.93;;;24.10;79.20;;;;;;4985880;28;20050;-78
2021/06/27 04:42:52;;;;;;;29.25;10.38;;;24.20;79.20;;;;;;4975624;28;20050;-77
2021/06/27 04:45:56;;;;;;;27.08;10.45;;;24.40;78.90;;;;;;4974907;28;20045;-76
2021/06/27 04:49:00;;;;;;;26.10;10.30;;;24.60;78.50;;;;;;4974762;28;20045;-76
2021/06/27 04:52:07;;;;;;;22.35;9.57;;;25.00;77.30;;;;;;4974663;28;20070;-78
2021/06/27 04:55:11;;;;;;;22.60;8.50;;;25.30;75.90;;;;;;4974941;28;20046;-77
2021/06/27 04:58:16;;;;;;;29.75;9.50;;;25.40;75.10;;;;;;4974966;28;20312;-75
2021/06/27 05:01:22;;;;;;;27.30;9.30;;;25.50;74.90;;;;;;4974800;28;20042;-75
2021/06/27 05:04:26;;;;;;;21.27;8.82;;;25.70;74.60;;;;;;4974889;28;20042;-78
2021/06/27 05:07:31;;;;;;;18.95;9.25;;;25.90;74.30;;;;;;4975582;28;20058;-78
2021/06/27 05:10:38;;;;;;;24.23;8.18;;;26.00;73.70;;;;;;4974405;28;20038;-77
2021/06/27 05:13:42;;;;;;;23.52;7.82;;;26.20;73.50;;;;;;4974624;28;20046;-76
2021/06/27 05:16:49;;;;;;;19.50;8.13;;;26.40;72.50;;;;;;4974395;28;20049;-76
2021/06/27 05:19:53;;;;;;;19.45;8.63;;;26.40;71.90;;;;;;4974296;28;20046;-76
2021/06/27 05:23:00;;;;;;;19.85;8.43;;;26.60;71.60;;;;;;4973561;28;20037;-76
2021/06/27 05:26:04;;;;;;;27.00;9.85;;;26.80;71.60;;;;;;4974251;28;20515;-76
2021/06/27 05:29:08;;;;;;;27.10;8.32;;;27.20;71.30;;;;;;4973508;28;20050;-77
2021/06/27 05:32:12;;;;;;;23.55;8.27;;;27.50;70.30;;;;;;4974969;28;20046;-76
2021/06/27 05:35:16;;;;;;;27.52;8.68;;;27.80;69.30;;;;;;4973159;28;20069;-76
2021/06/27 05:38:20;;;;;;;17.85;7.30;;;27.90;69.00;;;;;;4974105;28;20049;-77
2021/06/27 05:41:24;;;;;;;21.17;7.80;;;28.00;68.40;;;;;;4974470;28;20066;-76
2021/06/27 05:44:28;;;;;;;27.35;8.45;;;28.20;68.70;;;;;;4972346;28;20423;-76
2021/06/27 05:47:32;;;;;;;25.00;7.70;;;28.40;68.40;;;;;;4973702;28;20058;-77
2021/06/27 05:50:37;;;;;;;19.45;8.10;;;28.50;67.90;;;;;;4974011;28;20066;-77
2021/06/27 05:53:41;;;;;;;24.80;8.40;;;28.60;67.20;;;;;;4973394;28;20054;-76
2021/06/27 05:56:44;;;;;;;24.98;8.57;;;28.60;66.90;;;;;;4974364;28;20041;-76
2021/06/27 05:59:48;;;;;;;19.52;7.80;;;28.80;66.60;;;;;;4972577;28;20509;-77
2021/06/27 06:02:53;;;;;;;20.25;7.78;;;28.90;65.90;;;;;;4972570;28;20049;-80
2021/06/27 06:05:57;;;;;;;24.52;7.55;;;29.10;66.10;;;;;;4973489;28;20049;-76
2021/06/27 06:09:01;;;;;;;20.92;7.53;;;29.30;64.50;;;;;;4972767;28;20406;-77
2021/06/27 06:12:06;;;;;;;24.00;6.68;;;29.60;64.00;;;;;;4973243;28;20049;-76
2021/06/27 06:15:10;;;;;;;15.55;6.68;;;29.70;63.60;;;;;;4973508;28;20050;-76
2021/06/27 06:18:14;;;;;;;22.20;6.55;;;30.00;63.40;;;;;;4973256;28;20050;-77
2021/06/27 06:21:18;;;;;;;23.15;7.47;;;30.30;62.80;;;;;;4972892;28;20047;-77
2021/06/27 06:24:22;;;;;;;27.77;7.93;;;30.20;62.40;;;;;;4973240;28;20057;-77
2021/06/27 06:27:25;;;;;;;19.77;7.40;;;29.90;62.60;;;;;;4972076;28;20053;-77
2021/06/27 06:30:30;;;;;;;21.20;7.38;;;29.70;63.20;;;;;;4973128;28;20054;-76
2021/06/27 06:33:34;;;;;;;21.65;7.32;;;29.70;63.10;;;;;;4972753;28;20482;-76
2021/06/27 06:36:37;;;;;;;25.70;6.70;;;29.90;63.60;;;;;;4972882;28;20061;-76
2021/06/27 06:39:42;;;;;;;22.63;6.90;;;30.40;62.90;;;;;;4972827;28;20058;-77
2021/06/27 06:42:46;;;;;;;21.30;6.55;;;30.60;61.50;;;;;;4972713;28;20386;-76
2021/06/27 06:45:51;;;;;;;17.65;6.63;;;30.50;61.50;;;;;;4972970;28;20061;-76
2021/06/27 06:48:56;;;;;;;19.90;7.45;;;30.60;61.80;;;;;;4972495;28;20041;-76
2021/06/27 06:52:00;;;;;;;25.48;6.45;;;31.00;60.90;;;;;;4972755;28;20557;-75
2021/06/27 06:55:05;;;;;;;21.08;6.78;;;31.30;60.50;;;;;;4982244;28;20415;-77
2021/06/27 06:58:09;;;;;;;25.00;5.97;;;31.80;59.80;;;;;;4972557;28;20409;-77
2021/06/27 07:01:14;;;;;;;18.05;6.45;;;32.10;59.10;;;;;;4971993;28;20041;-78
2021/06/27 07:04:18;;;;;;;33.85;5.32;;;32.40;57.80;;;;;;4972458;28;20137;-77
2021/06/27 07:07:22;;;;;;;14.30;4.40;;;32.60;55.90;;;;;;4972215;28;20061;-77
2021/06/27 07:10:26;;;;;;;13.25;4.75;;;32.80;55.10;;;;;;4982789;28;20054;-77
2021/06/27 07:13:30;;;;;;;17.90;5.22;;;33.00;56.00;;;;;;4972153;28;20498;-77
2021/06/27 07:16:34;;;;;;;17.77;5.53;;;33.30;55.40;;;;;;4971289;28;20042;-77
2021/06/27 07:19:38;;;;;;;19.63;5.90;;;33.50;54.70;;;;;;4972087;28;20406;-77
2021/06/27 07:22:42;;;;;;;18.67;5.30;;;33.60;53.70;;;;;;4972375;28;20038;-76
2021/06/27 07:25:46;;;;;;;21.45;5.40;;;33.60;53.90;;;;;;4971643;28;20053;-77
2021/06/27 07:28:50;;;;;;;12.15;4.78;;;33.50;53.90;;;;;;4972377;28;20054;-77
2021/06/27 07:31:54;;;;;;;13.02;4.88;;;33.70;54.10;;;;;;4972881;28;20046;-77
2021/06/27 07:34:58;;;;;;;13.98;4.65;;;33.90;53.30;;;;;;4972589;28;20533;-78
2021/06/27 07:38:02;;;;;;;18.27;4.88;;;34.10;51.30;;;;;;4972336;28;20061;-77
2021/06/27 07:41:06;;;;;;;15.65;4.05;;;34.20;51.70;;;;;;4971300;28;20104;-77
2021/06/27 07:44:10;;;;;;;11.02;4.43;;;34.40;50.50;;;;;;4971969;28;20050;-77
2021/06/27 07:47:14;;;;;;;14.30;3.95;;;34.50;51.00;;;;;;4971789;28;20066;-77
2021/06/27 07:50:18;;;;;;;16.20;4.25;;;34.70;49.80;;;;;;4971184;28;20529;-77
2021/06/27 07:53:23;;;;;;;16.40;4.03;;;34.80;49.20;;;;;;4982110;28;20309;-76
2021/06/27 07:56:27;;;;;;;14.50;3.97;;;34.90;49.10;;;;;;4971269;28;20133;-78
2021/06/27 07:59:31;;;;;;;14.98;3.83;;;34.90;49.50;;;;;;4972080;28;20293;-77
2021/06/27 08:02:36;;;;;;;11.07;3.70;;;35.00;48.70;;;;;;4971106;28;20046;-78
2021/06/27 08:05:40;;;;;;;20.45;3.83;;;35.10;48.30;;;;;;4971975;28;20333;-78
2021/06/27 08:08:44;;;;;;;15.27;3.80;;;34.80;48.00;;;;;;4975948;28;20131;-78
2021/06/27 08:11:48;;;;;;;13.35;3.33;;;34.80;47.90;;;;;;4975940;28;20046;-77
2021/06/27 08:14:52;;;;;;;14.70;4.07;;;34.70;48.00;;;;;;4974759;28;20427;-77
2021/06/27 08:17:56;;;;;;;22.63;4.03;;;34.50;48.40;;;;;;4975683;28;20394;-78
2021/06/27 08:21:00;;;;;;;16.80;4.18;;;34.80;49.00;;;;;;4975766;28;20122;-81
2021/06/27 08:24:04;;;;;;;24.52;4.72;;;34.80;48.40;;;;;;4963682;28;20054;-78
2021/06/27 08:27:09;;;;;;;11.05;3.88;;;35.00;47.30;;;;;;4975245;28;20078;-78
2021/06/27 08:30:14;;;;;;;12.30;3.97;;;35.10;47.80;;;;;;4975618;28;20038;-77
2021/06/27 08:33:18;;;;;;;17.73;4.03;;;35.20;47.50;;;;;;4974491;28;20050;-78
2021/06/27 08:36:22;;;;;;;19.75;4.25;;;35.30;47.20;;;;;;4975144;28;20046;-76
2021/06/27 08:39:26;;;;;;;17.00;3.67;;;35.30;46.50;;;;;;4975159;28;20062;-77
2021/06/27 08:42:34;;;;;;;16.02;3.92;;;35.00;46.80;;;;;;4975031;28;20413;-78
2021/06/27 08:45:58;;;;;;;10.68;3.58;;;34.60;47.00;;;;;;4974479;28;20073;-77
2021/06/27 08:49:03;;;;;;;16.83;3.97;;;34.70;47.00;;;;;;4974983;28;20066;-78
2021/06/27 08:52:13;;;;;;;19.95;4.07;;;34.60;47.10;;;;;;4974919;28;20058;-77
2021/06/27 08:55:18;;;;;;;19.38;4.18;;;34.70;47.10;;;;;;4974858;28;20042;-78
2021/06/27 08:58:22;;;;;;;22.00;4.38;;;34.80;47.40;;;;;;4974697;28;20037;-76
2021/06/27 09:01:26;;;;;;;14.05;3.97;;;34.80;47.10;;;;;;4974922;28;20046;-76
2021/06/27 09:04:33;;;;;;;19.83;4.32;;;35.00;47.80;;;;;;4974685;28;20042;-77
2021/06/27 09:07:39;;;;;;;13.65;3.90;;;35.20;47.30;;;;;;4974712;28;20066;-78
2021/06/27 09:10:47;;;;;;;25.25;4.82;;;35.40;46.60;;;;;;4974779;28;20046;-78
2021/06/27 09:13:51;;;;;;;18.80;4.65;;;35.50;45.70;;;;;;4973785;28;20054;-77
2021/06/27 09:17:10;;;;;;;15.55;4.45;;;35.50;45.60;;;;;;4974707;28;20431;-77
2021/06/27 09:20:14;;;;;;;16.10;4.75;;;35.30;45.20;;;;;;4973466;28;20050;-77
2021/06/27 09:23:31;;;;;;;29.27;5.25;;;35.40;46.40;;;;;;4974442;28;20423;-77
2021/06/27 09:26:35;;;;;;;12.93;4.53;;;35.30;44.60;;;;;;4973644;28;20061;-77
2021/06/27 09:29:39;;;;;;;19.00;4.53;;;35.20;45.40;;;;;;4974357;28;20049;-77
2021/06/27 09:32:58;;;;;;;14.95;4.13;;;35.20;45.90;;;;;;4974926;28;20050;-76
2021/06/27 09:36:09;;;;;;;18.83;4.47;;;35.40;45.70;;;;;;4974363;28;20506;-78
2021/06/27 09:39:14;;;;;;;;;;;35.50;45.20;;;;;;4974407;28;20134;-78
2021/06/27 09:42:18;;;;;;;15.13;4.35;;;35.50;46.00;;;;;;4974071;28;19917;-77
2021/06/27 09:45:22;;;;;;;13.00;3.80;;;35.50;46.50;;;;;;4973391;28;20042;-75
2021/06/27 09:48:28;;;;;;;15.68;4.63;;;35.60;46.50;;;;;;4973856;28;20054;-77
2021/06/27 09:51:34;;;;;;;13.85;4.43;;;35.80;46.20;;;;;;4973886;28;20057;-76
2021/06/27 09:54:39;;;;;;;14.77;4.28;;;35.70;45.30;;;;;;4974446;28;20050;-78
2021/06/27 09:57:43;;;;;;;15.00;4.57;;;35.60;45.50;;;;;;4973997;28;20050;-76
2021/06/27 10:00:47;;;;;;;15.63;4.40;;;35.60;46.20;;;;;;4971984;28;20418;-77
2021/06/27 10:03:54;;;;;;;22.77;4.60;;;35.60;46.00;;;;;;4973481;28;20602;-77
2021/06/27 10:07:06;;;;;;;13.40;3.72;;;35.70;46.00;;;;;;4973476;28;20541;-76
2021/06/27 10:10:19;;;;;;;9.65;4.13;;;35.70;46.30;;;;;;4971921;28;20046;-77
2021/06/27 10:13:25;;;;;;;7.40;4.00;;;35.80;46.50;;;;;;4973695;28;20049;-77
2021/06/27 10:16:34;;;;;;;18.15;3.83;;;35.90;46.20;;;;;;4973459;28;20050;-77
2021/06/27 10:19:38;;;;;;;18.08;4.25;;;35.90;46.40;;;;;;4973710;28;20050;-77
2021/06/27 10:22:43;;;;;;;22.23;6.40;;;35.80;45.30;;;;;;4973555;28;20046;-77
2021/06/27 10:25:48;;;;;;;14.30;4.20;;;35.80;44.70;;;;;;4973190;28;20054;-76
2021/06/27 10:28:53;;;;;;;20.40;5.32;;;35.70;45.50;;;;;;4972371;28;20073;-76
2021/06/27 10:31:57;;;;;;;17.63;4.50;;;35.80;45.60;;;;;;4973208;28;20046;-76
2021/06/27 10:35:07;;;;;;;15.27;5.03;;;35.80;45.60;;;;;;4972264;28;20147;-78
2021/06/27 10:38:12;;;;;;;23.83;4.43;;;35.70;45.20;;;;;;4972778;28;20066;-80
2021/06/27 10:41:16;;;;;;;9.82;3.67;;;35.60;45.20;;;;;;4973138;28;20050;-77
2021/06/27 10:44:24;;;;;;;16.13;4.00;;;35.60;44.50;;;;;;4973078;28;20414;-76
2021/06/27 10:47:35;;;;;;;19.13;4.53;;;35.70;45.20;;;;;;4972361;28;20053;-77
2021/06/27 10:50:52;;;;;;;13.50;3.67;;;35.60;45.20;;;;;;4972421;28;20050;-76
2021/06/27 10:54:14;;;;;;;14.77;3.47;;;35.60;44.60;;;;;;4972798;28;20081;-78
2021/06/27 10:57:20;;;;;;;13.05;3.92;;;35.50;45.30;;;;;;4972657;28;20501;-76
2021/06/27 11:00:27;;;;;;;17.75;3.90;;;35.50;46.40;;;;;;4972251;28;20054;-77
2021/06/27 11:03:41;;;;;;;16.20;3.70;;;35.50;45.90;;;;;;4972506;28;20053;-77
2021/06/27 11:06:45;;;;;;;9.60;3.10;;;35.40;46.30;;;;;;4972824;28;20046;-78
2021/06/27 11:09:49;;;;;;;14.13;3.35;;;35.40;46.20;;;;;;4972529;28;20395;-75
2021/06/27 11:12:59;;;;;;;16.15;3.90;;;35.30;46.40;;;;;;4972310;28;20046;-78
2021/06/27 11:16:06;;;;;;;12.85;3.40;;;35.30;46.00;;;;;;4972638;28;20049;-78
2021/06/27 11:19:25;;;;;;;10.85;3.28;;;35.20;46.60;;;;;;4972295;28;20061;-78
2021/06/27 11:22:45;;;;;;;15.23;3.30;;;35.10;47.30;;;;;;4972327;28;20042;-78
2021/06/27 11:25:49;;;;;;;9.93;3.30;;;35.00;47.20;;;;;;4971814;28;20506;-77
2021/06/27 11:28:53;;;;;;;17.77;3.50;;;35.10;46.70;;;;;;4971900;28;20297;-76
2021/06/27 11:32:03;;;;;;;17.77;4.10;;;35.00;46.50;;;;;;4972285;28;20474;-76
2021/06/27 11:35:08;;;;;;;18.40;5.53;;;35.00;46.50;;;;;;4972340;28;20065;-77
2021/06/27 11:38:38;;;;;;;15.85;5.25;;;34.90;46.80;;;;;;4971415;28;20053;-76
2021/06/27 11:41:42;;;;;;;14.20;3.53;;;34.90;46.10;;;;;;4971725;28;20054;-77
2021/06/27 11:44:46;;;;;;;16.33;3.45;;;34.80;46.70;;;;;;4971353;28;20042;-76
2021/06/27 11:47:53;;;;;;;14.55;3.88;;;34.90;45.70;;;;;;4972061;28;20050;-78
2021/06/27 11:50:57;;;;;;;17.70;4.00;;;34.80;45.70;;;;;;4971451;28;20045;-77
2021/06/27 11:54:03;;;;;;;13.27;5.30;;;34.80;45.50;;;;;;4971238;28;20403;-78
2021/06/27 11:57:08;;;;;;;13.10;4.35;;;34.80;46.10;;;;;;4971045;28;20045;-77
2021/06/27 12:00:13;;;;;;;10.80;3.25;;;34.80;44.70;;;;;;4971159;28;20510;-76
2021/06/27 12:03:22;;;;;;;8.15;2.47;;;34.80;42.30;;;;;;4971919;28;20046;-77
2021/06/27 12:06:35;;;;;;;9.98;2.42;;;34.80;40.50;;;;;;4972092;28;20045;-76
2021/06/27 12:09:39;;;;;;;10.63;2.42;;;34.80;40.40;;;;;;4971181;28;20050;-76
2021/06/27 12:12:51;;;;;;;7.40;2.08;;;34.70;32.40;;;;;;4971931;28;20041;-76
2021/06/27 12:15:59;;;;;;;9.88;3.25;;;34.70;34.90;;;;;;4972186;28;20046;-77
2021/06/27 12:19:04;;;;;;;15.52;3.38;;;34.80;36.50;;;;;;4971532;28;20058;-77
2021/06/27 12:22:09;;;;;;;9.18;2.22;;;34.80;35.20;;;;;;4971734;28;20225;-76
2021/06/27 12:25:14;;;;;;;8.13;2.10;;;34.80;35.80;;;;;;4971629;28;20390;-77
2021/06/27 12:28:40;;;;;;;6.75;2.30;;;34.80;36.00;;;;;;4971531;28;20050;-76
2021/06/27 12:31:44;;;;;;;11.20;2.28;;;34.80;36.30;;;;;;4971548;28;20051;-77
2021/06/27 12:34:48;;;;;;;10.73;2.50;;;34.80;35.60;;;;;;4971896;28;20054;-76
2021/06/27 12:37:53;;;;;;;6.30;2.03;;;34.80;37.10;;;;;;4972011;28;20062;-75
2021/06/27 12:40:59;;;;;;;15.50;3.22;;;34.80;38.60;;;;;;4971586;28;20407;-83
2021/06/27 12:44:05;;;;;;;12.30;2.85;;;34.80;37.80;;;;;;4971423;28;20498;-77
2021/06/27 12:47:09;;;;;;;14.30;3.15;;;34.80;39.10;;;;;;4971117;28;20050;-75
2021/06/27 12:50:14;;;;;;;7.85;2.80;;;34.80;39.50;;;;;;4971453;28;20054;-76
2021/06/27 12:53:24;;;;;;;11.25;2.90;;;34.70;39.80;;;;;;4971878;28;20058;-75
2021/06/27 12:56:49;;;;;;;13.50;3.43;;;34.70;41.70;;;;;;4974898;28;20521;-76
2021/06/27 12:59:55;;;;;;;15.40;3.28;;;34.70;42.20;;;;;;4974474;28;20042;-75
2021/06/27 13:03:16;;;;;;;13.85;3.40;;;34.70;42.40;;;;;;4974980;28;20046;-77
2021/06/27 13:06:21;;;;;;;13.57;2.70;;;34.70;44.00;;;;;;4974541;28;20057;-77
2021/06/27 13:09:25;;;;;;;12.23;3.30;;;34.60;43.80;;;;;;4974418;28;20050;-77
2021/06/27 13:12:56;;;;;;;9.00;2.83;;;34.60;42.80;;;;;;4974743;28;20050;-78
2021/06/27 13:16:15;;;;;;;10.63;3.30;;;34.60;43.40;;;;;;4979539;28;20046;-77
2021/06/27 13:19:20;;;;;;;11.82;3.25;;;34.50;43.90;;;;;;4974443;28;20041;-76
2021/06/27 13:22:24;;;;;;;15.32;2.70;;;34.50;43.10;;;;;;4974998;28;20041;-76
2021/06/27 13:25:40;;;;;;;14.05;2.72;;;34.50;41.20;;;;;;4985473;28;20038;-76
2021/06/27 13:28:46;;;;;;;6.93;2.35;;;34.40;42.30;;;;;;4973950;28;20054;-77
2021/06/27 13:31:51;;;;;;;14.90;3.42;;;34.40;41.00;;;;;;4974260;28;20518;-77
2021/06/27 13:34:55;;;;;;;9.80;2.90;;;34.40;42.60;;;;;;4974403;28;20054;-77
2021/06/27 13:38:02;;;;;;;14.25;3.75;;;34.40;43.80;;;;;;4973446;28;20124;-76
2021/06/27 13:41:10;;;;;;;10.98;3.35;;;34.40;41.80;;;;;;4973774;28;20042;-77
2021/06/27 13:44:14;;;;;;;12.43;3.08;;;34.40;43.00;;;;;;4971656;28;20045;-76
2021/06/27 13:47:18;;;;;;;12.07;2.88;;;34.40;42.60;;;;;;4976673;28;20510;-76
2021/06/27 13:50:26;;;;;;;10.18;2.88;;;34.40;42.70;;;;;;4972109;28;20038;-76
2021/06/27 13:53:30;;;;;;;14.02;2.97;;;34.40;43.70;;;;;;4972222;28;20073;-78
2021/06/27 13:56:34;;;;;;;12.95;2.67;;;34.30;40.80;;;;;;4982525;28;20038;-78
2021/06/27 13:59:38;;;;;;;24.65;3.45;;;34.20;39.90;;;;;;4973712;28;20046;-77
2021/06/27 14:02:43;;;;;;;12.55;2.63;;;34.20;42.10;;;;;;4973816;28;20054;-75
2021/06/27 14:05:47;;;;;;;20.13;3.15;;;34.10;41.90;;;;;;4973325;28;20111;-78
2021/06/27 14:08:51;;;;;;;14.90;2.60;;;34.10;41.30;;;;;;4973214;28;20061;-77
2021/06/27 14:11:55;;;;;;;13.10;2.97;;;34.10;40.90;;;;;;4974222;28;20046;-76
2021/06/27 14:15:00;;;;;;;14.48;2.47;;;34.00;41.80;;;;;;4973492;28;20058;-77
2021/06/27 14:18:04;;;;;;;10.25;2.40;;;34.00;40.70;;;;;;4972460;28;20046;-77
2021/06/27 14:21:12;;;;;;;8.73;2.45;;;34.00;42.20;;;;;;4972813;28;20046;-77
2021/06/27 14:24:16;;;;;;;10.70;2.28;;;34.00;41.90;;;;;;4972214;28;20046;-77
2021/06/27 14:27:20;;;;;;;16.65;2.45;;;34.00;38.50;;;;;;4973075;28;20418;-77
2021/06/27 14:30:24;;;;;;;8.88;2.22;;;34.10;38.40;;;;;;4973171;28;20054;-78
2021/06/27 14:33:28;;;;;;;9.57;2.20;;;34.10;37.10;;;;;;4973206;28;20054;-79
2021/06/27 14:36:33;;;;;;;16.90;2.65;;;34.10;38.40;;;;;;4973274;28;20529;-78
2021/06/27 14:39:36;;;;;;;9.93;2.83;;;34.00;38.90;;;;;;4973169;28;20502;-76
2021/06/27 14:42:41;;;;;;;8.43;2.40;;;34.10;39.50;;;;;;4973160;28;20100;-77
2021/06/27 14:45:44;;;;;;;12.43;2.42;;;34.00;38.50;;;;;;4972645;28;20412;-77
2021/06/27 14:48:49;;;;;;;8.75;2.03;;;34.10;38.30;;;;;;4972808;28;20058;-76
2021/06/27 14:51:53;;;;;;;9.48;2.30;;;34.10;38.20;;;;;;4972717;28;20065;-76
2021/06/27 14:54:58;;;;;;;10.30;2.22;;;34.10;38.20;;;;;;4972003;28;20050;-77
2021/06/27 14:58:08;;;;;;;5.70;2.17;;;34.10;37.60;;;;;;4972859;28;20049;-79
2021/06/27 15:01:12;;;;;;;6.07;1.75;;;34.10;37.40;;;;;;4972473;28;20049;-78
2021/06/27 15:04:16;;;;;;;7.13;1.90;;;34.10;37.40;;;;;;4972270;28;20046;-78
2021/06/27 15:07:20;;;;;;;8.63;2.20;;;34.10;37.10;;;;;;4972454;28;20418;-78
2021/06/27 15:10:24;;;;;;;8.30;2.15;;;34.10;37.70;;;;;;4972323;28;20053;-77
2021/06/27 15:13:28;;;;;;;9.38;2.53;;;34.10;37.70;;;;;;4971959;28;20065;-76
2021/06/27 15:16:33;;;;;;;13.88;1.90;;;34.10;37.60;;;;;;4970790;28;20057;-77
2021/06/27 15:19:37;;;;;;;10.75;1.80;;;34.00;37.80;;;;;;4972643;28;20054;-77
2021/06/27 15:22:41;;;;;;;11.65;2.30;;;34.00;37.60;;;;;;4973000;28;20066;-77
2021/06/27 15:25:44;;;;;;;13.65;2.13;;;34.70;36.90;;;;;;4971993;28;20041;-78
2021/06/27 15:28:49;;;;;;;8.45;2.10;;;35.80;35.10;;;;;;4982143;28;20054;-77
2021/06/27 15:31:59;;;;;;;8.80;1.90;;;36.60;34.30;;;;;;4971887;28;20041;-75
2021/06/27 15:35:03;;;;;;;10.02;2.80;;;37.30;33.40;;;;;;4970797;28;20050;-77
2021/06/27 15:38:07;;;;;;;15.70;2.47;;;37.50;33.10;;;;;;4971977;28;20289;-78
2021/06/27 15:41:11;;;;;;;9.60;2.88;;;37.70;33.70;;;;;;4970736;28;20506;-76
2021/06/27 15:44:18;;;;;;;16.63;2.03;;;37.80;33.20;;;;;;4971445;28;20049;-77
2021/06/27 15:47:23;;;;;;;11.93;2.33;;;37.90;33.30;;;;;;4971944;28;20058;-77
2021/06/27 15:50:27;;;;;;;20.60;2.55;;;38.00;33.20;;;;;;4971877;28;20053;-77
2021/06/27 15:53:34;;;;;;;10.55;2.35;;;37.80;31.70;;;;;;4972214;28;20065;-76
2021/06/27 15:56:39;;;;;;;12.30;2.17;;;37.70;32.50;;;;;;4971574;28;20070;-76
2021/06/27 15:59:44;;;;;;;11.68;2.30;;;37.90;32.50;;;;;;4971854;28;20394;-77